createdAt,value
2019-03-23T00:00:09.369Z,6.20
2019-03-23T00:02:37.719Z,6.10
2019-03-23T00:05:05.307Z,6.10
2019-03-23T00:07:34.183Z,6.10
2019-03-23T00:10:01.767Z,6.10
2019-03-23T00:12:29.338Z,6.10
2019-03-23T00:14:56.950Z,6.20
2019-03-23T00:17:24.532Z,6.10
2019-03-23T00:19:52.118Z,6.00
2019-03-23T00:22:20.598Z,5.80
2019-03-23T00:24:48.946Z,5.80
2019-03-23T00:27:16.528Z,5.70
2019-03-23T00:29:44.179Z,5.70
2019-03-23T00:32:11.760Z,5.60
2019-03-23T00:34:40.113Z,5.60
2019-03-23T00:37:07.732Z,5.60
2019-03-23T00:39:35.301Z,5.60
2019-03-23T00:42:02.873Z,5.70
2019-03-23T00:44:30.487Z,5.70
2019-03-23T00:46:58.064Z,5.60
2019-03-23T00:49:25.643Z,5.50
2019-03-23T00:51:53.668Z,5.40
2019-03-23T00:54:21.248Z,5.40
2019-03-23T00:56:48.833Z,5.30
2019-03-23T00:59:16.437Z,5.20
2019-03-23T01:01:44.010Z,5.20
2019-03-23T01:04:11.587Z,5.20
2019-03-23T01:06:39.973Z,5.10
2019-03-23T01:09:07.557Z,5.00
2019-03-23T01:11:35.134Z,5.10
2019-03-23T01:14:02.748Z,5.00
2019-03-23T01:16:30.319Z,5.00
2019-03-23T01:18:57.899Z,5.00
2019-03-23T01:21:25.518Z,4.90
2019-03-23T01:23:53.090Z,4.90
2019-03-23T01:26:20.660Z,4.80
2019-03-23T01:28:49.033Z,4.80
2019-03-23T01:31:16.610Z,4.70
2019-03-23T01:33:44.187Z,4.70
2019-03-23T01:36:11.803Z,4.70
2019-03-23T01:38:39.675Z,4.60
2019-03-23T01:41:07.257Z,4.60
2019-03-23T01:43:35.644Z,4.60
2019-03-23T01:46:03.990Z,4.70
2019-03-23T01:48:31.566Z,4.70
2019-03-23T01:50:59.605Z,4.60
2019-03-23T01:53:27.183Z,4.50
2019-03-23T01:55:54.758Z,4.50
2019-03-23T01:58:22.409Z,4.50
2019-03-23T02:00:50.006Z,4.60
2019-03-23T02:03:18.347Z,4.50
2019-03-23T02:05:45.963Z,4.50
2019-03-23T02:08:13.546Z,4.50
2019-03-23T02:10:42.017Z,4.50
2019-03-23T02:13:09.154Z,4.40
2019-03-23T02:15:36.740Z,4.50
2019-03-23T02:18:04.318Z,4.50
2019-03-23T02:20:31.936Z,4.50
2019-03-23T02:22:59.520Z,4.40
2019-03-23T02:25:27.103Z,4.40
2019-03-23T02:27:54.712Z,4.30
2019-03-23T02:30:23.062Z,4.20
2019-03-23T02:32:50.638Z,4.20
2019-03-23T02:35:18.248Z,4.10
2019-03-23T02:37:45.831Z,4.10
2019-03-23T02:40:13.444Z,4.20
2019-03-23T02:42:41.044Z,4.10
2019-03-23T02:45:08.631Z,4.10
2019-03-23T02:47:36.200Z,4.20
2019-03-23T02:50:03.822Z,4.10
2019-03-23T02:52:31.406Z,4.20
2019-03-23T02:54:58.995Z,4.30
2019-03-23T02:57:26.606Z,4.20
2019-03-23T02:59:54.198Z,4.20
2019-03-23T03:02:22.079Z,4.10
2019-03-23T03:04:50.149Z,4.00
2019-03-23T03:07:17.735Z,4.10
2019-03-23T03:09:46.127Z,4.30
2019-03-23T03:12:14.040Z,4.30
2019-03-23T03:14:41.630Z,4.20
2019-03-23T03:17:09.207Z,4.20
2019-03-23T03:19:37.666Z,4.10
2019-03-23T03:22:05.243Z,4.10
2019-03-23T03:24:32.838Z,4.00
2019-03-23T03:27:01.963Z,3.90
2019-03-23T03:29:29.539Z,3.90
2019-03-23T03:31:57.121Z,3.80
2019-03-23T03:34:24.736Z,3.80
2019-03-23T03:36:52.318Z,3.70
2019-03-23T03:39:19.898Z,3.70
2019-03-23T03:41:47.516Z,3.60
2019-03-23T03:44:15.097Z,3.60
2019-03-23T03:46:42.673Z,3.50
2019-03-23T03:49:12.575Z,3.50
2019-03-23T03:51:37.881Z,3.60
2019-03-23T03:54:05.458Z,3.70
2019-03-23T03:56:33.076Z,3.70
2019-03-23T03:59:00.670Z,3.60
2019-03-23T04:01:28.252Z,3.60
2019-03-23T04:03:55.866Z,3.60
2019-03-23T04:06:23.448Z,3.50
2019-03-23T04:08:51.044Z,3.40
2019-03-23T04:11:18.662Z,3.40
2019-03-23T04:13:46.240Z,3.40
2019-03-23T04:16:13.820Z,3.30
2019-03-23T04:18:41.427Z,3.30
2019-03-23T04:21:09.004Z,3.40
2019-03-23T04:23:36.584Z,3.40
2019-03-23T04:26:04.221Z,3.30
2019-03-23T04:28:32.547Z,3.40
2019-03-23T04:31:00.119Z,3.40
2019-03-23T04:33:27.828Z,3.40
2019-03-23T04:35:55.436Z,3.30
2019-03-23T04:38:23.402Z,3.20
2019-03-23T04:40:51.415Z,3.30
2019-03-23T04:43:18.976Z,3.30
2019-03-23T04:45:46.553Z,3.30
2019-03-23T04:48:14.164Z,3.20
2019-03-23T04:50:41.738Z,3.20
2019-03-23T04:53:10.085Z,3.20
2019-03-23T04:55:37.745Z,3.20
2019-03-23T04:58:05.329Z,3.30
2019-03-23T05:00:32.904Z,3.20
2019-03-23T05:03:01.285Z,3.10
2019-03-23T05:05:29.630Z,3.10
2019-03-23T05:07:57.211Z,3.10
2019-03-23T05:10:24.865Z,3.10
2019-03-23T05:12:52.433Z,3.10
2019-03-23T05:15:20.010Z,3.00
2019-03-23T05:17:48.397Z,3.10
2019-03-23T05:20:25.533Z,3.10
2019-03-23T05:22:53.112Z,3.10
2019-03-23T05:25:23.422Z,3.10
2019-03-23T05:27:51.023Z,3.00
2019-03-23T05:30:18.597Z,3.00
2019-03-23T05:32:46.213Z,2.90
2019-03-23T05:35:13.787Z,2.80
2019-03-23T05:37:41.364Z,2.80
2019-03-23T05:40:08.991Z,2.70
2019-03-23T05:42:36.577Z,2.90
2019-03-23T05:45:04.158Z,2.90
2019-03-23T05:47:32.539Z,2.80
2019-03-23T05:50:00.881Z,2.80
2019-03-23T05:52:28.455Z,2.80
2019-03-23T05:54:56.073Z,2.70
2019-03-23T05:57:23.653Z,2.80
2019-03-23T05:59:51.229Z,2.80
2019-03-23T06:02:19.221Z,2.70
2019-03-23T06:04:46.801Z,2.80
2019-03-23T06:07:14.370Z,2.90
2019-03-23T06:09:42.759Z,2.90
2019-03-23T06:12:10.348Z,2.80
2019-03-23T06:14:37.924Z,2.90
2019-03-23T06:17:05.539Z,2.90
2019-03-23T06:19:33.114Z,2.90
2019-03-23T06:22:00.690Z,2.90
2019-03-23T06:24:28.311Z,2.90
2019-03-23T06:26:56.650Z,3.00
2019-03-23T06:29:24.234Z,2.90
2019-03-23T06:31:51.838Z,3.00
2019-03-23T06:34:19.468Z,3.00
2019-03-23T06:36:47.075Z,3.10
2019-03-23T06:39:14.726Z,3.10
2019-03-23T06:41:42.378Z,3.10
2019-03-23T06:44:09.958Z,3.20
2019-03-23T06:46:37.594Z,3.20
2019-03-23T06:49:05.936Z,3.20
2019-03-23T06:51:33.695Z,3.20
2019-03-23T06:54:01.242Z,3.20
2019-03-23T06:56:29.335Z,3.20
2019-03-23T06:58:56.908Z,3.30
2019-03-23T07:01:24.522Z,3.30
2019-03-23T07:03:52.096Z,3.40
2019-03-23T07:06:19.687Z,3.50
2019-03-23T07:08:47.307Z,3.60
2019-03-23T07:11:14.884Z,3.60
2019-03-23T07:13:42.467Z,3.80
2019-03-23T07:16:10.090Z,3.90
2019-03-23T07:18:37.687Z,4.00
2019-03-23T07:21:05.260Z,4.20
2019-03-23T07:23:33.130Z,4.30
2019-03-23T07:26:00.712Z,4.30
2019-03-23T07:28:29.062Z,4.50
2019-03-23T07:30:57.139Z,4.50
2019-03-23T07:33:24.723Z,4.60
2019-03-23T07:35:53.575Z,4.80
2019-03-23T07:38:21.206Z,4.70
2019-03-23T07:40:48.790Z,4.90
2019-03-23T07:43:16.363Z,5.00
2019-03-23T07:45:43.976Z,5.10
2019-03-23T07:48:12.320Z,5.40
2019-03-23T07:50:39.895Z,5.40
2019-03-23T07:53:07.516Z,5.50
2019-03-23T07:55:35.106Z,5.60
2019-03-23T07:58:02.706Z,5.70
2019-03-23T08:00:31.664Z,6.10
2019-03-23T08:02:59.244Z,6.10
2019-03-23T08:05:26.838Z,6.20
2019-03-23T08:07:54.470Z,6.40
2019-03-23T08:10:31.856Z,6.60
2019-03-23T08:13:01.309Z,6.60
2019-03-23T08:15:28.888Z,6.60
2019-03-23T08:17:56.475Z,6.60
2019-03-23T08:20:24.169Z,6.70
2019-03-23T08:22:51.752Z,6.80
2019-03-23T08:25:19.353Z,7.00
2019-03-23T08:27:46.983Z,7.30
2019-03-23T08:30:14.567Z,7.50
2019-03-23T08:32:42.151Z,7.60
2019-03-23T08:35:09.787Z,7.70
2019-03-23T08:37:37.371Z,7.80
2019-03-23T08:40:04.973Z,7.90
2019-03-23T08:42:34.906Z,8.00
2019-03-23T08:45:00.972Z,8.50
2019-03-23T08:47:28.571Z,8.50
2019-03-23T08:49:57.004Z,8.70
2019-03-23T08:52:24.587Z,8.80
2019-03-23T08:54:52.178Z,8.80
2019-03-23T08:57:19.887Z,8.90
2019-03-23T08:59:47.472Z,9.00
2019-03-23T09:02:16.139Z,9.10
2019-03-23T09:04:43.777Z,9.20
2019-03-23T09:07:11.370Z,9.30
2019-03-23T09:09:38.958Z,9.40
2019-03-23T09:12:06.588Z,9.50
2019-03-23T09:14:47.158Z,9.60
2019-03-23T09:17:14.773Z,9.80
2019-03-23T09:19:42.362Z,9.90
2019-03-23T09:22:09.950Z,10.10
2019-03-23T09:24:37.623Z,10.20
2019-03-23T09:27:05.216Z,10.30
2019-03-23T09:29:32.816Z,10.50
2019-03-23T09:32:00.793Z,10.60
2019-03-23T09:34:28.385Z,10.70
2019-03-23T09:36:55.983Z,10.90
2019-03-23T09:39:23.618Z,11.00
2019-03-23T09:41:51.208Z,11.20
2019-03-23T09:44:18.808Z,11.30
2019-03-23T09:46:46.446Z,11.40
2019-03-23T09:49:14.032Z,11.60
2019-03-23T09:51:41.638Z,11.70
2019-03-23T09:54:09.313Z,11.80
2019-03-23T09:56:36.902Z,12.00
2019-03-23T09:59:04.506Z,12.10
2019-03-23T10:01:32.180Z,12.20
2019-03-23T10:04:00.538Z,12.40
2019-03-23T10:06:28.123Z,12.40
2019-03-23T10:08:56.530Z,12.80
2019-03-23T10:11:24.120Z,12.70
2019-03-23T10:13:51.708Z,12.90
2019-03-23T10:16:19.350Z,12.90
2019-03-23T10:18:46.952Z,13.10
2019-03-23T10:21:15.308Z,13.30
2019-03-23T10:23:42.974Z,13.30
2019-03-23T10:26:10.562Z,13.40
2019-03-23T10:28:38.923Z,13.60
2019-03-23T10:31:06.561Z,13.60
2019-03-23T10:33:34.143Z,13.70
2019-03-23T10:36:01.734Z,13.70
2019-03-23T10:38:29.380Z,13.80
2019-03-23T10:40:57.733Z,13.80
2019-03-23T10:43:25.326Z,13.80
2019-03-23T10:45:53.733Z,13.90
2019-03-23T10:48:21.330Z,13.90
2019-03-23T10:50:48.933Z,14.00
2019-03-23T10:53:23.005Z,14.20
2019-03-23T10:55:44.979Z,14.20
2019-03-23T10:58:13.343Z,14.40
2019-03-23T11:00:41.009Z,14.40
2019-03-23T11:03:08.593Z,14.40
2019-03-23T11:05:36.182Z,14.40
2019-03-23T11:08:03.816Z,14.50
2019-03-23T11:10:31.469Z,14.50
2019-03-23T11:12:59.056Z,14.50
2019-03-23T11:15:27.360Z,14.60
2019-03-23T11:17:54.955Z,14.60
2019-03-23T11:20:22.542Z,14.60
2019-03-23T11:22:50.183Z,14.70
2019-03-23T11:25:17.776Z,14.70
2019-03-23T11:27:45.359Z,14.80
2019-03-23T11:30:13.020Z,15.00
2019-03-23T11:32:40.598Z,15.20
2019-03-23T11:35:08.245Z,15.30
2019-03-23T11:37:36.604Z,15.40
2019-03-23T11:40:05.179Z,15.50
2019-03-23T11:42:33.069Z,15.70
2019-03-23T11:45:00.840Z,15.70
2019-03-23T11:47:28.624Z,15.70
2019-03-23T11:49:56.279Z,15.80
2019-03-23T11:52:23.971Z,15.80
2019-03-23T11:54:52.194Z,15.80
2019-03-23T11:57:19.874Z,15.90
2019-03-23T11:59:47.654Z,16.00
2019-03-23T12:02:15.540Z,16.00
2019-03-23T12:04:43.435Z,16.00
2019-03-23T12:07:12.140Z,16.20
2019-03-23T12:09:40.043Z,16.10
2019-03-23T12:12:07.797Z,16.20
2019-03-23T12:14:35.591Z,16.10
2019-03-23T12:17:03.339Z,16.10
2019-03-23T12:19:31.216Z,16.10
2019-03-23T12:21:58.964Z,16.20
2019-03-23T12:24:26.665Z,16.20
2019-03-23T12:26:54.554Z,16.20
2019-03-23T12:29:23.914Z,16.40
2019-03-23T12:31:51.733Z,16.30
2019-03-23T12:34:20.380Z,16.40
2019-03-23T12:36:48.575Z,16.30
2019-03-23T12:39:16.379Z,16.30
2019-03-23T12:41:44.174Z,16.30
2019-03-23T12:44:12.125Z,16.30
2019-03-23T12:46:47.952Z,16.30
2019-03-23T12:49:08.121Z,16.40
2019-03-23T12:51:36.025Z,16.40
2019-03-23T12:54:05.363Z,16.40
2019-03-23T12:56:33.080Z,16.40
2019-03-23T12:59:00.901Z,16.40
2019-03-23T13:01:28.695Z,16.40
2019-03-23T13:03:56.358Z,16.40
2019-03-23T13:06:24.031Z,16.40
2019-03-23T13:08:51.710Z,16.40
2019-03-23T13:11:23.270Z,16.40
2019-03-23T13:13:47.026Z,16.40
2019-03-23T15:48:15.245Z,15.50
2019-03-23T15:51:02.168Z,15.50
2019-03-23T15:53:15.689Z,15.50
2019-03-23T15:55:43.323Z,15.50
2019-03-23T15:58:11.677Z,15.40
2019-03-23T16:00:39.292Z,15.40
2019-03-23T16:03:06.963Z,15.30
2019-03-23T16:05:34.556Z,15.30
2019-03-23T16:08:02.155Z,15.30
2019-03-23T16:10:30.571Z,15.40
2019-03-23T16:12:58.341Z,15.40
2019-03-23T16:15:25.938Z,15.40
2019-03-23T16:17:53.576Z,15.40
2019-03-23T16:20:21.167Z,15.40
2019-03-23T16:22:48.749Z,15.40
2019-03-23T16:25:16.872Z,15.40
2019-03-23T16:27:44.461Z,15.30
2019-03-23T16:30:12.087Z,15.40
2019-03-23T16:32:40.218Z,15.30
2019-03-23T16:35:07.801Z,15.20
2019-03-23T16:37:35.399Z,15.10
2019-03-23T16:40:03.083Z,15.00
2019-03-23T16:42:30.672Z,14.80
2019-03-23T16:44:58.262Z,14.70
2019-03-23T16:47:25.900Z,14.60
2019-03-23T16:49:53.489Z,14.40
2019-03-23T16:52:21.079Z,14.30
2019-03-23T16:54:48.762Z,14.20
2019-03-23T16:57:16.381Z,14.10
2019-03-23T16:59:44.013Z,14.00
2019-03-23T17:02:11.685Z,13.80
2019-03-23T17:04:39.242Z,13.70
2019-03-23T17:07:06.886Z,13.60
2019-03-23T17:09:34.562Z,13.50
2019-03-23T17:12:02.155Z,13.40
2019-03-23T17:14:29.746Z,13.30
2019-03-23T17:16:57.400Z,13.30
2019-03-23T17:19:24.998Z,13.20
2019-03-23T17:21:53.376Z,13.10
2019-03-23T17:24:21.023Z,13.10
2019-03-23T17:26:48.627Z,13.10
2019-03-23T17:29:16.269Z,13.00
2019-03-23T17:31:43.938Z,13.00
2019-03-23T17:34:11.538Z,12.90
2019-03-23T17:36:39.142Z,12.80
2019-03-23T17:39:08.213Z,12.80
2019-03-23T17:41:35.957Z,12.70
2019-03-23T17:44:03.618Z,12.70
2019-03-23T17:46:31.456Z,12.60
2019-03-23T17:48:59.110Z,12.50
2019-03-23T17:51:26.689Z,12.40
2019-03-23T17:53:58.447Z,12.30
2019-03-23T17:56:22.053Z,12.10
2019-03-23T17:58:49.684Z,12.00
2019-03-23T18:01:19.706Z,11.90
2019-03-23T18:03:44.979Z,11.80
2019-03-23T18:06:12.642Z,11.70
2019-03-23T18:08:40.375Z,11.60
2019-03-23T18:11:08.023Z,11.60
2019-03-23T18:13:35.640Z,11.50
2019-03-23T18:16:04.272Z,11.40
2019-03-23T18:18:32.260Z,11.30
2019-03-23T18:21:03.109Z,11.20
2019-03-23T18:23:32.746Z,11.20
2019-03-23T18:26:04.376Z,11.10
2019-03-23T18:28:32.652Z,11.00
2019-03-23T20:13:38.685Z,9.10
2019-03-23T20:16:34.704Z,9.10
2019-03-23T20:18:50.622Z,9.00
2019-03-23T20:21:17.081Z,9.00
2019-03-23T20:23:44.787Z,9.00
2019-03-23T20:26:12.410Z,9.00
2019-03-23T20:28:40.399Z,9.00
2019-03-23T20:31:08.001Z,9.00
2019-03-23T20:33:35.769Z,9.00
2019-03-23T20:36:03.623Z,9.00
2019-03-23T20:38:34.135Z,9.10
2019-03-23T20:41:01.812Z,9.10
2019-03-23T20:43:29.403Z,9.10
2019-03-23T20:45:56.994Z,9.10
2019-03-23T20:48:24.629Z,9.00
2019-03-23T20:50:52.531Z,9.00
2019-03-23T20:53:20.122Z,9.00
2019-03-23T20:55:47.758Z,9.00
2019-03-23T20:58:15.335Z,8.90
2019-03-23T21:00:42.923Z,9.00
2019-03-23T21:03:10.560Z,9.00
2019-03-23T21:05:38.143Z,9.10
2019-03-23T21:08:06.492Z,9.10
2019-03-23T21:10:34.576Z,9.10
2019-03-23T21:13:02.160Z,9.00
2019-03-23T21:15:30.515Z,8.90
2019-03-23T21:17:58.148Z,8.90
2019-03-23T21:20:25.736Z,8.80
2019-03-23T21:22:53.333Z,8.80
2019-03-23T21:25:21.745Z,8.70
2019-03-23T21:27:49.348Z,8.70
2019-03-23T21:30:16.943Z,8.70
2019-03-23T21:32:44.579Z,8.60
2019-03-23T21:35:12.160Z,8.60
2019-03-23T21:37:40.521Z,8.60
2019-03-23T21:40:08.155Z,8.60
2019-03-23T21:42:35.745Z,8.60
2019-03-23T21:45:03.368Z,8.60
2019-03-23T21:47:31.802Z,8.40
2019-03-23T21:50:00.331Z,8.30
2019-03-23T21:52:27.739Z,8.30
2019-03-23T21:54:56.179Z,8.10
2019-03-23T21:57:23.729Z,8.10
2019-03-23T21:59:51.319Z,8.00
2019-03-23T22:02:18.951Z,7.90
2019-03-23T22:04:46.531Z,7.90
2019-03-23T22:07:14.134Z,7.80
2019-03-23T22:09:41.798Z,7.70
2019-03-23T22:12:10.140Z,7.60
2019-03-23T22:14:41.826Z,7.60
2019-03-23T22:17:06.066Z,7.50
2019-03-23T22:19:33.432Z,7.50
2019-03-23T22:22:01.012Z,7.40
2019-03-23T22:24:28.633Z,7.40
2019-03-23T22:26:56.213Z,7.30
2019-03-23T22:29:23.797Z,7.30
2019-03-23T22:31:51.953Z,7.20
2019-03-23T22:34:19.535Z,7.20
2019-03-23T22:36:47.119Z,7.20
2019-03-23T22:39:15.591Z,7.10
2019-03-23T22:41:43.181Z,7.10
2019-03-23T22:44:10.763Z,7.10
2019-03-23T22:46:38.397Z,7.00
2019-03-23T22:49:05.995Z,7.00
2019-03-23T22:51:33.582Z,6.90
2019-03-23T22:54:01.219Z,6.90
2019-03-23T22:56:29.000Z,6.80
2019-03-23T22:58:56.547Z,6.80
2019-03-23T23:01:24.246Z,6.80
2019-03-23T23:03:51.825Z,6.80
2019-03-23T23:06:20.169Z,6.70
2019-03-23T23:08:47.793Z,6.70
2019-03-23T23:11:15.378Z,6.70
2019-03-23T23:13:42.961Z,6.60
2019-03-23T23:16:10.613Z,6.50
2019-03-23T23:18:38.189Z,6.50
2019-03-23T23:21:05.784Z,6.40
2019-03-23T23:23:34.163Z,6.30
2019-03-23T23:26:02.525Z,6.30
2019-03-23T23:28:30.104Z,6.30
2019-03-23T23:30:57.740Z,6.30
2019-03-23T23:33:25.330Z,6.20
2019-03-23T23:35:53.706Z,6.20
2019-03-23T23:38:23.001Z,6.20
2019-03-23T23:40:50.587Z,6.10
2019-03-23T23:43:18.186Z,6.10
2019-03-23T23:45:45.894Z,6.10
2019-03-23T23:48:14.243Z,6.00
2019-03-23T23:50:41.829Z,6.00
2019-03-23T23:53:10.219Z,6.00
2019-03-23T23:55:38.571Z,5.90
2019-03-23T23:58:06.156Z,5.90
